Terminal Aerodrome Forecast
Issued by NWS Jackson, KY

Home | Current Version | Previous Version | Text Only | Print | Product List | Glossary On
Versions: 1 2 3 4 5 6 7 8 9 10 11 12 13 14 15 16 17
000
FTUS43 KJKL 020532
TAFLOZ
TAF
KLOZ 020532Z 0206/0306 VRB05KT P6SM BKN015
      TEMPO 0206/0208 5SM BR
     FM020800 VRB03KT 3SM BR VCSH OVC010
     FM021300 23007KT P6SM VCTS SCT015 BKN030CB
     FM030200 VRB03KT 3SM BR VCSH BKN015=

USA.gov is the U.S. government's official web portal to all federal, state and local government web resources and services.